sensor_id;sensor_type;location;lat;lon;timestamp;temperature;humidity
796;DHT22;381;48.770;9.188;2023-07-24T00:00:18;22.10;91.20
796;DHT22;381;48.770;9.188;2023-07-24T00:05:20;22.10;90.80
796;DHT22;381;48.770;9.188;2023-07-24T00:10:24;21.90;92.00
796;DHT22;381;48.770;9.188;2023-07-24T00:15:26;21.60;93.30
796;DHT22;381;48.770;9.188;2023-07-24T00:20:28;21.50;92.70
796;DHT22;381;48.770;9.188;2023-07-24T00:25:31;21.40;93.20
796;DHT22;381;48.770;9.188;2023-07-24T00:30:33;21.40;95.30
796;DHT22;381;48.770;9.188;2023-07-24T00:35:35;21.10;95.60
796;DHT22;381;48.770;9.188;2023-07-24T00:40:39;21.00;96.40
796;DHT22;381;48.770;9.188;2023-07-24T00:45:41;20.80;96.60
796;DHT22;381;48.770;9.188;2023-07-24T00:50:44;20.60;97.00
796;DHT22;381;48.770;9.188;2023-07-24T00:55:48;20.50;97.00
796;DHT22;381;48.770;9.188;2023-07-24T01:00:50;20.40;97.10
796;DHT22;381;48.770;9.188;2023-07-24T01:05:54;20.40;97.50
796;DHT22;381;48.770;9.188;2023-07-24T01:11:05;20.50;97.30
796;DHT22;381;48.770;9.188;2023-07-24T01:16:13;20.50;97.10
796;DHT22;381;48.770;9.188;2023-07-24T01:21:18;20.40;97.20
796;DHT22;381;48.770;9.188;2023-07-24T01:26:23;20.40;96.70
796;DHT22;381;48.770;9.188;2023-07-24T01:31:26;20.40;97.40
796;DHT22;381;48.770;9.188;2023-07-24T01:36:28;20.40;97.90
796;DHT22;381;48.770;9.188;2023-07-24T01:41:32;20.40;98.00
796;DHT22;381;48.770;9.188;2023-07-24T01:46:34;20.50;97.90
796;DHT22;381;48.770;9.188;2023-07-24T01:51:36;20.50;96.60
796;DHT22;381;48.770;9.188;2023-07-24T01:56:39;20.50;96.70
796;DHT22;381;48.770;9.188;2023-07-24T02:01:42;20.50;95.70
796;DHT22;381;48.770;9.188;2023-07-24T02:06:44;20.60;95.10
796;DHT22;381;48.770;9.188;2023-07-24T02:11:47;20.70;94.40
796;DHT22;381;48.770;9.188;2023-07-24T02:16:50;20.80;95.10
796;DHT22;381;48.770;9.188;2023-07-24T02:21:52;20.80;94.70
796;DHT22;381;48.770;9.188;2023-07-24T02:26:56;20.80;94.40
796;DHT22;381;48.770;9.188;2023-07-24T02:31:59;20.90;94.70
796;DHT22;381;48.770;9.188;2023-07-24T02:37:01;20.90;94.40
796;DHT22;381;48.770;9.188;2023-07-24T02:42:05;20.90;94.50
796;DHT22;381;48.770;9.188;2023-07-24T02:47:07;20.90;93.80
796;DHT22;381;48.770;9.188;2023-07-24T02:52:09;21.00;93.80
796;DHT22;381;48.770;9.188;2023-07-24T02:57:13;21.00;93.90
796;DHT22;381;48.770;9.188;2023-07-24T03:02:15;20.90;93.60
796;DHT22;381;48.770;9.188;2023-07-24T03:07:17;20.90;93.30
796;DHT22;381;48.770;9.188;2023-07-24T03:12:20;20.90;93.00
796;DHT22;381;48.770;9.188;2023-07-24T03:17:23;20.80;93.30
796;DHT22;381;48.770;9.188;2023-07-24T03:22:25;20.80;93.30
796;DHT22;381;48.770;9.188;2023-07-24T03:27:29;20.70;93.10
796;DHT22;381;48.770;9.188;2023-07-24T03:32:31;20.60;93.20
796;DHT22;381;48.770;9.188;2023-07-24T03:37:34;20.50;93.30
796;DHT22;381;48.770;9.188;2023-07-24T03:42:38;20.50;93.40
796;DHT22;381;48.770;9.188;2023-07-24T03:47:40;20.50;93.10
796;DHT22;381;48.770;9.188;2023-07-24T03:52:42;20.50;93.40
796;DHT22;381;48.770;9.188;2023-07-24T03:57:45;20.40;93.40
796;DHT22;381;48.770;9.188;2023-07-24T04:02:47;20.50;93.40
796;DHT22;381;48.770;9.188;2023-07-24T04:07:49;20.50;93.10
796;DHT22;381;48.770;9.188;2023-07-24T04:12:53;20.60;93.20
796;DHT22;381;48.770;9.188;2023-07-24T04:17:55;20.60;93.30
796;DHT22;381;48.770;9.188;2023-07-24T04:22:57;20.70;93.10
796;DHT22;381;48.770;9.188;2023-07-24T04:28:00;20.80;92.60
796;DHT22;381;48.770;9.188;2023-07-24T04:33:02;20.80;92.50
796;DHT22;381;48.770;9.188;2023-07-24T04:38:04;20.90;92.80
796;DHT22;381;48.770;9.188;2023-07-24T04:43:08;21.00;92.10
796;DHT22;381;48.770;9.188;2023-07-24T04:48:10;21.20;92.50
796;DHT22;381;48.770;9.188;2023-07-24T04:53:12;21.30;92.20
796;DHT22;381;48.770;9.188;2023-07-24T04:58:15;21.40;92.70
796;DHT22;381;48.770;9.188;2023-07-24T05:03:17;21.40;92.80
796;DHT22;381;48.770;9.188;2023-07-24T05:08:20;21.40;92.80
796;DHT22;381;48.770;9.188;2023-07-24T05:13:23;21.40;92.50
796;DHT22;381;48.770;9.188;2023-07-24T05:18:25;21.50;92.60
796;DHT22;381;48.770;9.188;2023-07-24T05:23:27;21.60;92.40
796;DHT22;381;48.770;9.188;2023-07-24T05:28:32;21.60;92.10
796;DHT22;381;48.770;9.188;2023-07-24T05:33:34;21.70;91.80
796;DHT22;381;48.770;9.188;2023-07-24T05:38:36;21.70;91.50
796;DHT22;381;48.770;9.188;2023-07-24T05:43:39;21.80;91.80
796;DHT22;381;48.770;9.188;2023-07-24T05:48:41;21.80;91.50
796;DHT22;381;48.770;9.188;2023-07-24T05:53:43;21.90;91.00
796;DHT22;381;48.770;9.188;2023-07-24T05:58:47;21.90;91.30
796;DHT22;381;48.770;9.188;2023-07-24T06:03:49;21.90;91.20
796;DHT22;381;48.770;9.188;2023-07-24T06:08:51;21.90;91.00
796;DHT22;381;48.770;9.188;2023-07-24T06:13:54;22.00;90.70
796;DHT22;381;48.770;9.188;2023-07-24T06:18:56;22.00;90.90
796;DHT22;381;48.770;9.188;2023-07-24T06:23:58;22.00;90.70
796;DHT22;381;48.770;9.188;2023-07-24T06:29:02;22.10;90.60
796;DHT22;381;48.770;9.188;2023-07-24T06:34:04;22.20;90.40
796;DHT22;381;48.770;9.188;2023-07-24T06:39:06;22.30;90.20
796;DHT22;381;48.770;9.188;2023-07-24T06:44:09;22.40;87.20
796;DHT22;381;48.770;9.188;2023-07-24T06:49:11;22.50;87.90
796;DHT22;381;48.770;9.188;2023-07-24T06:54:14;22.60;88.30
796;DHT22;381;48.770;9.188;2023-07-24T06:59:17;22.70;87.20
796;DHT22;381;48.770;9.188;2023-07-24T07:04:19;22.80;87.10
796;DHT22;381;48.770;9.188;2023-07-24T07:09:21;22.90;86.90
796;DHT22;381;48.770;9.188;2023-07-24T07:14:25;22.90;88.10
796;DHT22;381;48.770;9.188;2023-07-24T07:19:27;22.90;88.00
796;DHT22;381;48.770;9.188;2023-07-24T07:24:29;22.90;87.60
796;DHT22;381;48.770;9.188;2023-07-24T07:29:32;22.90;87.80
796;DHT22;381;48.770;9.188;2023-07-24T07:34:34;22.90;87.60
796;DHT22;381;48.770;9.188;2023-07-24T07:39:39;22.90;87.80
796;DHT22;381;48.770;9.188;2023-07-24T07:44:42;23.00;88.20
796;DHT22;381;48.770;9.188;2023-07-24T07:49:44;22.90;88.30
796;DHT22;381;48.770;9.188;2023-07-24T07:54:47;23.00;89.00
796;DHT22;381;48.770;9.188;2023-07-24T07:59:50;23.10;88.70
796;DHT22;381;48.770;9.188;2023-07-24T08:04:52;23.10;88.90
796;DHT22;381;48.770;9.188;2023-07-24T08:09:55;23.20;90.00
796;DHT22;381;48.770;9.188;2023-07-24T08:14:58;23.20;90.50
796;DHT22;381;48.770;9.188;2023-07-24T08:20:01;23.10;90.80
796;DHT22;381;48.770;9.188;2023-07-24T08:25:03;23.00;91.60
796;DHT22;381;48.770;9.188;2023-07-24T08:30:07;22.90;93.30
796;DHT22;381;48.770;9.188;2023-07-24T08:35:10;22.70;95.20
796;DHT22;381;48.770;9.188;2023-07-24T08:40:12;22.40;96.70
796;DHT22;381;48.770;9.188;2023-07-24T08:45:16;21.90;97.10
796;DHT22;381;48.770;9.188;2023-07-24T08:50:18;21.60;99.10
796;DHT22;381;48.770;9.188;2023-07-24T08:55:23;21.50;99.90
796;DHT22;381;48.770;9.188;2023-07-24T09:00:27;21.40;99.90
796;DHT22;381;48.770;9.188;2023-07-24T09:05:29;21.30;99.90
796;DHT22;381;48.770;9.188;2023-07-24T09:10:32;21.30;99.90
796;DHT22;381;48.770;9.188;2023-07-24T09:15:42;21.30;99.90
796;DHT22;381;48.770;9.188;2023-07-24T09:20:45;21.40;99.90
796;DHT22;381;48.770;9.188;2023-07-24T09:25:48;21.60;99.90
796;DHT22;381;48.770;9.188;2023-07-24T09:30:56;21.90;99.90
796;DHT22;381;48.770;9.188;2023-07-24T09:35:59;22.30;99.90
796;DHT22;381;48.770;9.188;2023-07-24T09:41:02;22.60;99.90
796;DHT22;381;48.770;9.188;2023-07-24T09:46:06;22.80;99.90
796;DHT22;381;48.770;9.188;2023-07-24T09:51:11;22.90;99.90
796;DHT22;381;48.770;9.188;2023-07-24T09:56:14;22.90;99.90
796;DHT22;381;48.770;9.188;2023-07-24T10:01:20;23.00;99.90
796;DHT22;381;48.770;9.188;2023-07-24T10:06:24;23.00;99.90
796;DHT22;381;48.770;9.188;2023-07-24T10:11:27;23.10;99.90
796;DHT22;381;48.770;9.188;2023-07-24T10:16:32;23.10;99.90
796;DHT22;381;48.770;9.188;2023-07-24T10:21:34;23.00;99.90
796;DHT22;381;48.770;9.188;2023-07-24T10:26:36;23.00;99.90
796;DHT22;381;48.770;9.188;2023-07-24T10:31:40;23.00;99.90
796;DHT22;381;48.770;9.188;2023-07-24T10:36:42;22.70;99.90
796;DHT22;381;48.770;9.188;2023-07-24T10:41:44;22.40;99.90
796;DHT22;381;48.770;9.188;2023-07-24T10:46:48;22.10;99.90
796;DHT22;381;48.770;9.188;2023-07-24T10:51:55;21.90;99.90
796;DHT22;381;48.770;9.188;2023-07-24T10:56:58;21.70;99.90
796;DHT22;381;48.770;9.188;2023-07-24T11:02:04;21.40;99.90
796;DHT22;381;48.770;9.188;2023-07-24T11:07:06;21.20;99.90
796;DHT22;381;48.770;9.188;2023-07-24T11:12:13;20.90;99.90
796;DHT22;381;48.770;9.188;2023-07-24T11:17:17;20.60;99.90
796;DHT22;381;48.770;9.188;2023-07-24T11:22:22;20.30;99.90
796;DHT22;381;48.770;9.188;2023-07-24T11:27:25;20.10;99.90
796;DHT22;381;48.770;9.188;2023-07-24T11:32:28;20.00;99.90
796;DHT22;381;48.770;9.188;2023-07-24T11:37:31;19.90;99.90
796;DHT22;381;48.770;9.188;2023-07-24T11:42:33;20.10;99.90
796;DHT22;381;48.770;9.188;2023-07-24T11:47:44;20.20;99.90
796;DHT22;381;48.770;9.188;2023-07-24T11:52:48;20.60;99.90
796;DHT22;381;48.770;9.188;2023-07-24T11:57:57;20.90;99.90
796;DHT22;381;48.770;9.188;2023-07-24T12:03:01;21.00;99.90
796;DHT22;381;48.770;9.188;2023-07-24T12:08:05;21.00;99.90
796;DHT22;381;48.770;9.188;2023-07-24T12:13:07;21.00;99.90
796;DHT22;381;48.770;9.188;2023-07-24T12:18:11;21.00;99.90
796;DHT22;381;48.770;9.188;2023-07-24T12:23:13;21.10;99.90
796;DHT22;381;48.770;9.188;2023-07-24T12:28:15;21.30;99.90
796;DHT22;381;48.770;9.188;2023-07-24T12:33:19;21.40;99.90
796;DHT22;381;48.770;9.188;2023-07-24T12:38:24;21.60;99.90
796;DHT22;381;48.770;9.188;2023-07-24T12:43:26;21.80;99.90
796;DHT22;381;48.770;9.188;2023-07-24T12:48:30;21.80;99.90
796;DHT22;381;48.770;9.188;2023-07-24T12:53:33;21.80;99.90
796;DHT22;381;48.770;9.188;2023-07-24T12:58:35;22.00;99.90
796;DHT22;381;48.770;9.188;2023-07-24T13:03:38;22.30;99.90
796;DHT22;381;48.770;9.188;2023-07-24T13:08:40;22.70;99.90
796;DHT22;381;48.770;9.188;2023-07-24T13:13:43;22.90;99.90
796;DHT22;381;48.770;9.188;2023-07-24T13:18:46;23.10;99.90
796;DHT22;381;48.770;9.188;2023-07-24T13:23:48;23.20;99.90
796;DHT22;381;48.770;9.188;2023-07-24T13:28:50;23.30;99.90
796;DHT22;381;48.770;9.188;2023-07-24T13:33:54;23.40;99.90
796;DHT22;381;48.770;9.188;2023-07-24T13:38:56;23.60;99.90
796;DHT22;381;48.770;9.188;2023-07-24T13:43:58;23.70;99.90
796;DHT22;381;48.770;9.188;2023-07-24T13:49:02;23.80;99.90
796;DHT22;381;48.770;9.188;2023-07-24T13:54:04;24.00;99.90
796;DHT22;381;48.770;9.188;2023-07-24T13:59:06;24.00;99.90
796;DHT22;381;48.770;9.188;2023-07-24T14:04:09;24.00;99.90
796;DHT22;381;48.770;9.188;2023-07-24T14:09:12;24.10;99.90
796;DHT22;381;48.770;9.188;2023-07-24T14:14:17;24.20;99.90
796;DHT22;381;48.770;9.188;2023-07-24T14:19:21;24.10;99.90
796;DHT22;381;48.770;9.188;2023-07-24T14:24:24;24.20;99.90
796;DHT22;381;48.770;9.188;2023-07-24T14:29:26;24.20;99.90
796;DHT22;381;48.770;9.188;2023-07-24T14:34:29;24.40;99.90
796;DHT22;381;48.770;9.188;2023-07-24T14:39:32;24.50;99.90
796;DHT22;381;48.770;9.188;2023-07-24T14:44:34;24.50;99.90
796;DHT22;381;48.770;9.188;2023-07-24T14:49:37;24.70;99.90
796;DHT22;381;48.770;9.188;2023-07-24T14:54:39;24.80;99.90
796;DHT22;381;48.770;9.188;2023-07-24T14:59:41;24.90;99.90
796;DHT22;381;48.770;9.188;2023-07-24T15:04:45;24.90;99.90
796;DHT22;381;48.770;9.188;2023-07-24T15:09:47;24.90;99.90
796;DHT22;381;48.770;9.188;2023-07-24T15:14:49;24.90;99.90
796;DHT22;381;48.770;9.188;2023-07-24T15:19:53;24.90;99.90
796;DHT22;381;48.770;9.188;2023-07-24T15:24:55;24.80;99.90
796;DHT22;381;48.770;9.188;2023-07-24T15:29:57;24.90;99.90
796;DHT22;381;48.770;9.188;2023-07-24T15:35:00;25.00;99.90
796;DHT22;381;48.770;9.188;2023-07-24T15:40:03;24.90;99.90
796;DHT22;381;48.770;9.188;2023-07-24T15:45:06;24.60;99.90
796;DHT22;381;48.770;9.188;2023-07-24T15:50:10;24.50;99.90
796;DHT22;381;48.770;9.188;2023-07-24T15:55:12;24.30;99.90
796;DHT22;381;48.770;9.188;2023-07-24T16:00:15;24.10;99.90
796;DHT22;381;48.770;9.188;2023-07-24T16:05:19;24.10;99.90
796;DHT22;381;48.770;9.188;2023-07-24T16:10:22;24.00;99.90
796;DHT22;381;48.770;9.188;2023-07-24T16:15:24;24.10;99.90
796;DHT22;381;48.770;9.188;2023-07-24T16:20:28;24.00;99.90
796;DHT22;381;48.770;9.188;2023-07-24T16:25:30;23.80;99.90
796;DHT22;381;48.770;9.188;2023-07-24T16:30:32;23.60;99.90
796;DHT22;381;48.770;9.188;2023-07-24T16:35:35;23.60;99.90
796;DHT22;381;48.770;9.188;2023-07-24T16:40:37;23.50;99.90
796;DHT22;381;48.770;9.188;2023-07-24T16:45:40;23.50;99.90
796;DHT22;381;48.770;9.188;2023-07-24T16:50:43;23.50;99.90
796;DHT22;381;48.770;9.188;2023-07-24T16:55:45;23.50;99.90
796;DHT22;381;48.770;9.188;2023-07-24T17:00:47;23.50;99.90
796;DHT22;381;48.770;9.188;2023-07-24T17:05:51;23.50;99.90
796;DHT22;381;48.770;9.188;2023-07-24T17:10:53;23.40;99.90
796;DHT22;381;48.770;9.188;2023-07-24T17:15:55;23.40;99.90
796;DHT22;381;48.770;9.188;2023-07-24T17:20:58;23.30;99.90
796;DHT22;381;48.770;9.188;2023-07-24T17:26:01;23.10;99.90
796;DHT22;381;48.770;9.188;2023-07-24T17:31:03;23.00;99.90
796;DHT22;381;48.770;9.188;2023-07-24T17:36:06;23.00;99.90
796;DHT22;381;48.770;9.188;2023-07-24T17:41:08;23.00;99.90
796;DHT22;381;48.770;9.188;2023-07-24T17:46:10;23.00;99.90
796;DHT22;381;48.770;9.188;2023-07-24T17:51:14;23.00;99.90
796;DHT22;381;48.770;9.188;2023-07-24T17:56:16;23.00;99.90
796;DHT22;381;48.770;9.188;2023-07-24T18:01:18;23.00;99.90
796;DHT22;381;48.770;9.188;2023-07-24T18:06:23;22.90;99.90
796;DHT22;381;48.770;9.188;2023-07-24T18:11:25;22.90;99.90
796;DHT22;381;48.770;9.188;2023-07-24T18:16:27;22.80;99.90
796;DHT22;381;48.770;9.188;2023-07-24T18:21:31;22.70;99.90
796;DHT22;381;48.770;9.188;2023-07-24T18:26:33;22.70;99.90
796;DHT22;381;48.770;9.188;2023-07-24T18:31:36;22.60;99.90
796;DHT22;381;48.770;9.188;2023-07-24T18:36:39;22.50;99.90
796;DHT22;381;48.770;9.188;2023-07-24T18:41:41;22.50;99.90
796;DHT22;381;48.770;9.188;2023-07-24T18:46:43;22.40;99.90
796;DHT22;381;48.770;9.188;2023-07-24T18:51:47;22.30;99.90
796;DHT22;381;48.770;9.188;2023-07-24T18:56:49;22.20;99.90
796;DHT22;381;48.770;9.188;2023-07-24T19:01:51;22.10;99.90
796;DHT22;381;48.770;9.188;2023-07-24T19:06:55;22.10;99.90
796;DHT22;381;48.770;9.188;2023-07-24T19:11:57;22.00;99.90
796;DHT22;381;48.770;9.188;2023-07-24T19:16:59;22.00;99.90
796;DHT22;381;48.770;9.188;2023-07-24T19:22:03;21.90;99.90
796;DHT22;381;48.770;9.188;2023-07-24T19:27:05;21.80;99.90
796;DHT22;381;48.770;9.188;2023-07-24T19:32:08;21.70;99.90
796;DHT22;381;48.770;9.188;2023-07-24T19:37:11;21.60;99.90
796;DHT22;381;48.770;9.188;2023-07-24T19:42:13;21.60;99.90
796;DHT22;381;48.770;9.188;2023-07-24T19:47:15;21.60;99.90
796;DHT22;381;48.770;9.188;2023-07-24T19:52:19;21.50;99.90
796;DHT22;381;48.770;9.188;2023-07-24T19:57:23;21.50;99.90
796;DHT22;381;48.770;9.188;2023-07-24T20:02:26;21.40;99.90
796;DHT22;381;48.770;9.188;2023-07-24T20:07:29;21.40;99.90
796;DHT22;381;48.770;9.188;2023-07-24T20:12:31;21.30;99.90
796;DHT22;381;48.770;9.188;2023-07-24T20:17:33;21.30;99.90
796;DHT22;381;48.770;9.188;2023-07-24T20:22:37;21.30;99.90
796;DHT22;381;48.770;9.188;2023-07-24T20:27:39;21.30;99.90
796;DHT22;381;48.770;9.188;2023-07-24T20:32:41;21.20;99.90
796;DHT22;381;48.770;9.188;2023-07-24T20:37:45;21.20;99.90
796;DHT22;381;48.770;9.188;2023-07-24T20:42:50;21.20;99.90
796;DHT22;381;48.770;9.188;2023-07-24T20:47:52;21.10;99.90
796;DHT22;381;48.770;9.188;2023-07-24T20:52:55;21.10;99.90
796;DHT22;381;48.770;9.188;2023-07-24T20:57:58;21.10;99.90
796;DHT22;381;48.770;9.188;2023-07-24T21:03:00;21.00;99.90
796;DHT22;381;48.770;9.188;2023-07-24T21:08:04;21.00;99.90
796;DHT22;381;48.770;9.188;2023-07-24T21:13:06;21.00;99.90
796;DHT22;381;48.770;9.188;2023-07-24T21:18:08;20.90;99.90
796;DHT22;381;48.770;9.188;2023-07-24T21:23:12;20.90;99.90
796;DHT22;381;48.770;9.188;2023-07-24T21:28:14;20.80;99.90
796;DHT22;381;48.770;9.188;2023-07-24T21:33:16;20.80;99.90
796;DHT22;381;48.770;9.188;2023-07-24T21:38:20;20.70;99.90
796;DHT22;381;48.770;9.188;2023-07-24T21:43:23;20.60;99.90
796;DHT22;381;48.770;9.188;2023-07-24T21:48:25;20.50;99.90
796;DHT22;381;48.770;9.188;2023-07-24T21:53:28;20.50;99.90
796;DHT22;381;48.770;9.188;2023-07-24T21:58:30;20.50;99.90
796;DHT22;381;48.770;9.188;2023-07-24T22:03:33;20.50;99.90
796;DHT22;381;48.770;9.188;2023-07-24T22:08:36;20.60;99.90
796;DHT22;381;48.770;9.188;2023-07-24T22:13:39;20.60;99.90
796;DHT22;381;48.770;9.188;2023-07-24T22:18:41;20.60;99.90
796;DHT22;381;48.770;9.188;2023-07-24T22:23:45;20.50;99.90
796;DHT22;381;48.770;9.188;2023-07-24T22:28:47;20.60;99.90
796;DHT22;381;48.770;9.188;2023-07-24T22:33:49;20.60;99.90
796;DHT22;381;48.770;9.188;2023-07-24T22:38:52;20.50;99.90
796;DHT22;381;48.770;9.188;2023-07-24T22:43:55;20.50;99.90
796;DHT22;381;48.770;9.188;2023-07-24T22:48:57;20.50;99.90
796;DHT22;381;48.770;9.188;2023-07-24T22:54:01;20.50;99.90
796;DHT22;381;48.770;9.188;2023-07-24T22:59:22;20.50;99.90
796;DHT22;381;48.770;9.188;2023-07-24T23:04:25;20.40;99.90
796;DHT22;381;48.770;9.188;2023-07-24T23:09:28;20.40;99.90
796;DHT22;381;48.770;9.188;2023-07-24T23:14:30;20.30;99.90
796;DHT22;381;48.770;9.188;2023-07-24T23:19:33;20.30;99.90
796;DHT22;381;48.770;9.188;2023-07-24T23:24:36;20.30;99.90
796;DHT22;381;48.770;9.188;2023-07-24T23:29:38;20.40;99.90
796;DHT22;381;48.770;9.188;2023-07-24T23:34:40;20.40;99.90
796;DHT22;381;48.770;9.188;2023-07-24T23:39:44;20.40;99.90
796;DHT22;381;48.770;9.188;2023-07-24T23:44:46;20.40;99.90
796;DHT22;381;48.770;9.188;2023-07-24T23:49:48;20.40;99.90
796;DHT22;381;48.770;9.188;2023-07-24T23:54:52;20.40;99.90
796;DHT22;381;48.770;9.188;2023-07-24T23:59:54;20.40;99.90
